X  Κλείσε Στοιχεία αεροπορικών μετεωρολογικών δεδομένων METAR     LGTS Thessaloniki Macedonia International Airport
θερμοκρασία
27°C θερμοκρασία
17°C Σημείο δρόσου
54% Υγρασία



Ανεμος
2 M/S
5 MPH
8 KM/H
4 KTS



70°
AVA
Τρέχουσες συνθήκες

Μερικώς συννεφιασμένος Μερικώς συννεφιασμένος
πίεση 1009.82 (hPa) - 29.82 (inHg)
Ορατότητα 6 (μίλι) - 9.7 (km)
Aεροδρόμιο
Κωδικός αεροδρομίου LGTS

Τοποθεσία: Thessaloniki Macedonia International Airport
Απόσταση: 85 (km)

Metar:
LGTS 122220Z 07004KT 9999 FEW030 27/17 Q1010 NOSIG

ώρα: 13-07-2024 01:20 EEST